Como, CO

5. elokuuta 2015 klo 06:25 (MDT) (GMT -0600)
Stanley Ridge @ Indian Mtn | | Change Station
CLOSE
Current Station
Omat sääasemat
Location: Como, CO
Korkeus: 9784 ft
Lähimmät sääasemat

Kork 9784 ft 39.25 °N, 105.79 °W | Updated 11 minutes ago

Selkeää
Selkeää
41.3 °F
Tuntuu kuin 41 °F
N
0.0
Tuuli Suunnaltaan vaihteleva Tuuli ilmansuunnasta Etelän ja kaakon välinen
Gusts 0.0 mph

Tänään
Korkea -- | Matala -- °F
--% Sateen mahd.
Eilen
Korkea -- | Matala -- °F
Precip. -- tuumaa
6:07 AM 8:11 PM
Vähenevä kupera kuu, 67% visible
Ilmanpaine 30.09 tuumaa
Näkyvyys 10.0 mailia
Pilviä Selkeää
Tuulen hyytävyys 41 °F
Kastepiste 35 °F
Ilmankosteus 78%
Sademäärä 0.00 tuumaa
Lumensyvyys Ei saatavilla
UV 0 / 12
Pollen 8.30 / 12
Ilmanlaatu Ei saatavilla
Flu Activity Ei saatavilla
METAR KLXV 051153Z AUTO 00000KT 10SM CLR 02/01 A3051 RMK AO2 SLP187 T00220011 10083 20022 53002

More Conditions Fewer Conditions

Ilmanpaine 30.09 tuumaa
Näkyvyys 10.0 mailia
Pilviä Selkeää
Tuulen hyytävyys 41 °F
Kastepiste 35 °F
Ilmankosteus 78%
Sademäärä 0.00 tuumaa
Lumensyvyys Ei saatavilla
UV 0 / 12
Pollen 8.30 / 12
Ilmanlaatu Ei saatavilla
Flu Activity Ei saatavilla
METAR KLXV 051153Z AUTO 00000KT 10SM CLR 02/01 A3051 RMK AO2 SLP187 T00220011 10083 20022 53002

More Conditions Fewer Conditions

10-Day Weather Forecast

×

Almanac

Tähtitiede

Aug. 05, 2015 Nousuaika Laskuaika
Valoisa aika
Porvarillinen hämärä
Nauttinen hämärä
Astronominen hämärä
Kuu
Näkyvän valon pituus
Päivän pituus
Tomorrow will be .
, % of the Moon is Illuminated

Tämän päivän ennätykset

State Highs State Lows

Community

WunderPhotos

Upload Photos

1,844,171 photos uploaded!

WunderBlogs® & News

Nearby

Ilmanlaatu

  Ilmanlaatu AQ Index Pollutant
Not available.

Lumensyvyys

Station Depth Korkeus

Maanjäristysaktiivisuus

Paikkakunta Distance Mag. Time & Date
Minimum magnitude displayed is 2.5.

Coastal Water Temperatures

Paikka Lämpötila

Stations

Lähimmät sääasemat

Aseman sijainti Lämpötila Tuulen hyytävyys Kastepiste Ilmankosteus Tuuli Precip. Kork Päivitetty Tyyppi